Grand Canyon National Park, AZ

7:24 AM MST on July 28, 2014 (GMT -0700)
Grand Canyon National Park (KGCN) Elev 6608 ft | 35.95 °N, 112.15 °W | Change Station
Active Advisory: Flash Flood Watch

Current weather conditions updated 30 minutes ago

Clear
Clear
57 °F
Feels Like 57 °F
N
0
Wind Variable Wind from North

Today is forecast to be Much Cooler than yesterday. Afternoon thunderstorms.

Today
High -- | Low -- °F
--% Chance of Precip.
Yesterday
High -- | Low -- °F
Precip. -- in
5:32 AM 7:36 PM
New Moon, 2% visible
Pressure 30.17 in
Visibility 10.0 miles
Clouds Clear
Dew Point 55 °F
Humidity 93%
Rainfall 0.00 in
Snow Depth Not available.
UV 1 out of 12
Pollen 2.80 out of 12
Air Quality Not available.
Flu Activity Not available.
METAR KGCN 281354Z 00000KT 10SM CLR 14/13 A3043 RMK AO2 SLP215 T01390128 $

More Conditions Fewer Conditions

Pressure 30.17 in
Visibility 10.0 miles
Clouds Clear
Dew Point 55 °F
Humidity 93%
Rainfall 0.00 in
Snow Depth Not available.
UV 1 out of 12
Pollen 2.80 out of 12
Air Quality Not available.
Flu Activity Not available.
METAR KGCN 281354Z 00000KT 10SM CLR 14/13 A3043 RMK AO2 SLP215 T01390128 $

More Conditions Fewer Conditions

10-Day Weather Forecast

Almanac

Astronomy

Jul. 28, 2014 Rise Set
Actual Time 5:32 AM MST 7:36 PM MST
Civil Twilight 5:04 AM MST 8:05 PM MST
Nautical Twilight 4:29 AM MST 8:40 PM MST
Astronomical Twilight 3:51 AM MST 9:17 PM MST
Moon 7:12 AM MST 8:26 PM MST
Length of Visible Light 15h 01m
Length of Day
14h 04m
Tomorrow will be 1m 37s shorter.
New Moon, 2% of the Moon is Illuminated
Today
New Moon
Aug 3
First Quarter
Aug 10
Full
Aug 17
Last Quarter
Aug 25
New

Today's Extremes

State Highs State Lows

Community

WunderPhotos

Upload Photos

1,738,337 photos uploaded!

Nearby

Snow Depth

Station Depth Elevation
Snowslide Canyon 0 in 9730 ft
White Horse Lake 0 in 7180 ft
Mormon Mountain 0 in 7500 ft
Workman Creek 1 in 6900 ft
Maverick Fork 0 in 9200 ft

Earthquake Activity

City Distance Mag. Time & Date
No recent earthquake activity has been reported nearby.
Minimum magnitude displayed is 2.5.

Coastal Water Temperatures

Place Temperature
No Stations Reporting

Nearby Weather Stations

Station Location Temp. Heat Index Dew Point Humidity Wind Precip. Elev Updated Type
APRSWXNET Phantom Ranch AZ US, Grand Canyon, AZ 79 °F 81 °F 63 °F 58% North  at  0 mph 0.78 in / hr 2549 ft 7:00 AM MST MADIS

Show More Stations Show Fewer Stations